Terminal Aerodrome Forecast
Issued by NWS

Home | Current Version | Previous Version | Text Only | Print | Product List | Glossary On
Versions: 1 2 3 4 5 6 7 8 9 10 11 12 13 14 15 16 17 18 19 20 21
041
FTUS44 KCRP 280554 AAA
TAFLRD
TAF AMD
KLRD 280554Z 2806/2906 12006KT P6SM SCT250
      TEMPO 2810/2812 BKN015
     FM281400 14012KT P6SM SCT030
     FM281800 13015G20KT P6SM BKN040
     FM282100 12012KT P6SM VCTS BKN050CB OVC250 PROB30 2822/2824
      VRB20G40KT 5SM TSRA OVC040CB
     FM290400 12008KT P6SM SCT060 BKN250=

USA.gov is the U.S. government's official web portal to all federal, state and local government web resources and services.